INDIA METEOROLOGICAL DEPARTMENT, R.M.C. NEW DELHI
Dated:25-04-2019
METARS


Ahmedabad  
VAAH 242000Z 29009KT 4000 FU NSC 31/10 Q1008 NOSIG=
Bangalore  
VOBL 242000Z VRB01KT 6000 FEW015 24/16 Q1015 NOSIG=
Bhubaneswar
VEBS 242000Z VRB01KT 4000 HZ NSC 27/27 Q1008 NOSIG=
Chennai    
VOMM 242000Z 00000KT 6000 FEW020 30/25 Q1009 NOSIG=
Coimbatore 
VOCB 242000Z 00000KT 5000 HZ FEW015 26/22 Q1011 NOSIG=
Colombo    
VCBI 242010Z 15003KT 9000 FEW018 29/25 Q1008 NOSIG=
Delhi      
VIDP 242000Z 07006KT 2500 HZ FEW040 SCT100 32/20 Q1008 NOSIG =
Gauhati    
VEGT 242000Z 00000KT 2500 BR FEW018 SCT100 25/23 Q1008 NOSIG=
Gaya       
VEGY 242000Z NIL=
Hyderabad  
VOHS 242000Z 16003KT 6000 FEW020 28/17 Q1011 NOSIG=
Jaipur     
VIJP 242000Z 30002KT 2500 HZ FEW035 32/07 Q1009 NOSIG=
Kochi      
VOCI 242000Z 00000KT 4000 BR SCT015 BKN080 24/23 Q1008 NOSIG=
Kolkata    
VECC 242000Z 20005KT 4000 HZ FEW020 28/23 Q1007 NOSIG=
Kozhikode  
VOCL 242000Z 00000KT 6000 FEW015 SCT080 28/23 Q1008 NOSIG=
Lucknow    
VILK 242000Z 10004KT 3000 HZ NSC 30/19 Q1007 NOSIG=
Madurai    
VOMD 241900Z 27002KT 5000 HZ FEW020 29/23 Q1010 NOSIG=
Mumbai     
VABB 242000Z 33005KT 3000 HZ NSC 29/22 Q1008 NOSIG=
Nagpur     
VANP 242000Z 00000KT 3000 HZ SCT100 31/09 Q1007 NOSIG=
Patna      
VEPT 242000Z 08005KT 4000 HZ NSC 30/20 Q1006 NOSIG=
Surat     
VASU 242000Z 00000KT 6000 NSC 29/23 Q1007=
Trichy     
VOTR 242000Z 17001KT 5000 HZ FEW018 FEW100 28/26 Q1008 NOSIG=
Trivandrum 
VOTV 242000Z 00000KT 4000 HZ SCT015 SCT080 29/25 Q1008 NOSIG=
Varanasi   
VEBN 241830Z 05006KT 3500 HZ NSC 31/18 Q1007 NOSIG=
Male       
VRMM 242000Z 29008KT 9999 FEW018 BKN270 30/26 Q1009 NOSIG=
Gan        
VRMG 242000Z 28010KT 9999 FEW018TCU BKN260 30/26 Q1010 NOSIG=
Kathmandu  
VNKT 242000Z NIL=
Dhaka      
VGHS 242000Z 00000KT 3500 HZ NSC 29/24 Q1008 NOSIG=
Colombo    
VCBI 242010Z 15003KT 9000 FEW018 29/25 Q1008 NOSIG=
Karachi    
OPKC 241955Z 27008KT 6000 SCT020 27/22 Q1009 NOSIG=
Lahore     
OPLA 241955Z 04004KT 4000 FU FEW100 24/17 Q1009 NOSIG RMK QFE983 RMK A29.80=